AirNav   TITAN Aviation Fuels
 
 1132 users online  

07IN Gray Airport
Boggstown, Indiana, USA

GOING TO BOGGSTOWN?


FAA INFORMATION EFFECTIVE 22 APRIL 2021

Location

FAA Identifier: 07IN
Lat/Long: 39-34-25.1720N 085-54-49.9340W
39-34.419533N 085-54.832233W
39.5736589,-85.9138706
(estimated)
Elevation: 750 ft. / 229 m (estimated)
Variation: 02W (1985)
From city: 1 mile N of BOGGSTOWN, IN
Time zone: UTC -4 (UTC -5 during Standard Time)
Zip code: 46126

Airport Operations

Airport use: Private use. Permission required prior to landing
Control tower: no
ARTCC: INDIANAPOLIS CENTER
FSS: TERRE HAUTE FLIGHT SERVICE STATION
Attendance: UNATNDD
Wind indicator: yes
Segmented circle: no

Airport Communications

WX ASOS at GEZ (5 nm E): 121.55 (317-398-0246)
WX AWOS-3P at HFY (9 nm W): 118.525 (317-882-5862)
WX AWOS-3 at HBE (15 nm S): 119.675 (812-526-1745)
WX AWOS-3 at 8A4 (16 nm NW): 118.250 (317-955-3160)
WX AWOS-3 at MQJ (16 nm N): 124.175 (317-335-3037)
WX AWOS-3 at BAK (19 nm S): 119.75 (812-376-7584)
WX ASOS at IND (20 nm NW): PHONE 317-241-0348

Nearby radio navigation aids

VOR radial/distance  VOR name  Freq  Var
SHBr229/5.4SHELBYVILLE VOR/DME112.0001E
VHPr124/25.5BRICKYARD VORTAC116.3001E

 
NDB name  Hdg/Dist  Freq  Var  ID
METROPOLITAN167/22.733803WUMP ..- -- .--.
NEW CASTLE242/33.038506WUWL ..- .-- .-..
BATESVILLE299/33.325405WHLB .... .-.. -...

Airport Services

Airframe service: NONE
Powerplant service: NONE

Runway Information

Runway N/S

Dimensions: 1860 x 80 ft. / 567 x 24 m
Surface: turf
RUNWAY N  RUNWAY S
Traffic pattern: leftleft

Airport Ownership and Management from official FAA records

Ownership: Privately-owned
Owner: TERRY & REBECCA BAKER
P.O. BOX 562
FAIRLAND, IN 46126-0562
Phone 317-696-0697
Manager: TERRY & REBECCA BAKER
P.O. BOX 562
FAIRLAND, IN 46126-0562
Phone 317-696-0697

Airport Operational Statistics

Aircraft based on the field: 2
Single engine airplanes: 2
    

Additional Remarks

HOUSE E OF LNDG AREA.
FOR CD CTC INDIANAPOLIS APCH AT 317-227-5743.

Instrument Procedures

There are no published instrument procedures at 07IN.

Some nearby airports with instrument procedures:

KGEZ - Shelbyville Municipal Airport (5 nm E)
KHFY - Indy South Greenwood Airport (9 nm W)
8A4 - Indianapolis Downtown Heliport (16 nm NW)
KMQJ - Indianapolis Regional Airport (16 nm N)
KBAK - Columbus Municipal Airport (19 nm S)
KIND - Indianapolis International Airport (20 nm NW)
 
Loc | Ops | Rwys | IFR | FBO | Links
Com | Nav | Svcs | Stats | Notes
Area around 07IN (Gray Airport)
 
Road maps at: MapQuest Bing Google
 
Aerial photo
No photo
 
Sectional chart

 
Airport distance calculator
Flying to Gray Airport? Find the distance to fly.

From to 07IN

Sunrise and sunset
Times for 16-May-2021
 Local
(UTC-4)
 Zulu
(UTC)
Morning civil twilight05:5909:59
Sunrise06:3010:30
Sunset20:5100:51
Evening civil twilight21:2101:21

Current date and time
Zulu (UTC)  17-May-2021 00:36:04
Local (UTC-4)  16-May-2021 20:36:04
 
METAR
KGEZ 
5nm E 
162353Z AUTO 16006KT 10SM FEW046 21/10 A3014 RMK AO2 SLP204 T02110100 10233 20211 56003
KHFY 
9nm W 
162335Z AUTO 18006KT 10SM BKN060 20/11 A3015 RMK AO2 T02030109
KMQJ 
16nm N 
170015Z AUTO 00000KT 10SM SCT050 BKN060 20/13 A3016 RMK AO1
KBAK 
18nm S 
162350Z 14007KT 10SM CLR 19/10 A3015
KIND 
19nm NW 
162354Z 14006KT 10SM FEW060 SCT170 BKN250 20/11 A3013 RMK AO2 SLP202 T02000106 10211 20200 56006
TAF
KIND 
19nm NW 
162023Z 1620/1724 17006KT P6SM BKN050 FM170200 VRB05KT P6SM BKN100 FM170700 12005KT P6SM VCSH BKN040 FM171000 10008KT 6SM -SHRA BR OVC015 FM171700 13008KT 6SM SHRA BR BKN020
NOTAMs
Click for the latest NOTAMs
NOTAMs are issued by the DoD/FAA and will open in a separate window not controlled by AirNav.

 

 
 

Would you like to see your business listed on this page?

 If your business provides an interesting product or service to pilots, flight crews, aircraft, or users of the Gray Airport, you should consider listing it here.  To start the listing process, click on the button below
 
Add a business
 

Other Pages about Gray Airport

Update a link
 
Copyright © AirNav, LLC. All rights reserved. Privacy Policy  Contact